Time;durP1;ratioP1;P1;durP2;ratioP2;P2;SDS_P1;SDS_P2;PMS_P1;PMS_P2;Temp;Humidity;BMP_temperature;BMP_pressure;BME280_temperature;BME280_humidity;BME280_pressure;Samples;Min_cycle;Max_cycle;Signal;HPM_P1;HPM_P2
2022/05/18 00:00:36;;;;;;;0.47;0.47;;;17.30;66.80;16.60;98764.00;;;;5016374;28;20712;-78
2022/05/18 00:03:06;;;;;;;1.33;0.90;;;17.30;67.40;16.60;98768.00;;;;5016227;28;20597;-76
2022/05/18 00:05:34;;;;;;;0.73;0.73;;;17.20;68.10;16.50;98764.00;;;;5016023;28;20209;-77
2022/05/18 00:08:01;;;;;;;1.30;1.23;;;17.10;68.70;16.40;98737.00;;;;5015401;28;20223;-78
2022/05/18 00:10:29;;;;;;;1.00;1.00;;;17.10;69.10;16.50;98759.00;;;;5016106;28;20190;-78
2022/05/18 00:12:58;;;;;;;0.80;0.80;;;17.10;69.50;16.40;98764.00;;;;5016248;28;20260;-78
2022/05/18 00:15:27;;;;;;;0.80;0.80;;;17.00;69.70;16.20;98776.00;;;;5015936;28;20630;-81
2022/05/18 00:17:55;;;;;;;0.73;0.73;;;16.90;70.30;16.20;98771.00;;;;5015991;28;20284;-77
2022/05/18 00:20:23;;;;;;;1.23;1.13;;;16.80;72.00;16.30;98773.00;;;;5015987;28;20221;-77
2022/05/18 00:22:52;;;;;;;0.50;0.50;;;16.90;71.70;16.30;98750.00;;;;5016106;28;20216;-79
2022/05/18 00:25:24;;;;;;;0.57;0.57;;;16.80;71.80;16.30;98778.00;;;;5015884;28;20209;-78
2022/05/18 00:27:53;;;;;;;0.53;0.53;;;16.80;71.00;16.20;98770.00;;;;5015954;28;20226;-78
2022/05/18 00:30:24;;;;;;;0.87;0.87;;;16.70;71.60;16.10;98774.00;;;;5015762;28;20201;-78
2022/05/18 00:32:52;;;;;;;0.40;0.40;;;16.70;72.00;16.30;98779.00;;;;5015847;28;20270;-79
2022/05/18 00:35:20;;;;;;;1.13;0.80;;;16.70;72.30;16.20;98775.00;;;;5015938;28;20205;-77
2022/05/18 00:37:47;;;;;;;1.30;1.20;;;16.80;72.00;16.10;98777.00;;;;5015644;28;20189;-79
2022/05/18 00:40:18;;;;;;;0.87;0.87;;;16.70;72.30;16.10;98776.00;;;;5015514;28;20233;-78
2022/05/18 00:42:45;;;;;;;0.50;0.50;;;16.70;72.60;15.90;98782.00;;;;5015144;28;20229;-79
2022/05/18 00:45:13;;;;;;;0.57;0.57;;;16.60;73.20;16.20;98748.00;;;;5015673;28;20201;-78
2022/05/18 00:47:43;;;;;;;0.40;0.40;;;16.70;73.30;16.20;98775.00;;;;5015732;28;20341;-79
2022/05/18 00:50:25;;;;;;;0.80;0.80;;;16.70;72.00;16.20;98773.00;;;;5015533;28;20280;-79
2022/05/18 00:53:00;;;;;;;3.40;1.63;;;16.70;71.80;16.20;98775.00;;;;5015397;28;20228;-79
2022/05/18 00:55:31;;;;;;;0.50;0.50;;;16.70;71.50;16.20;98764.00;;;;5015726;28;20189;-79
2022/05/18 00:58:08;;;;;;;0.63;0.63;;;16.60;71.50;16.10;98768.00;;;;5015385;28;20233;-79
2022/05/18 01:00:38;;;;;;;5.07;1.90;;;16.60;71.70;16.00;98761.00;;;;5015289;28;20217;-78
2022/05/18 01:03:14;;;;;;;0.50;0.50;;;16.60;72.20;16.00;98755.00;;;;4998090;28;20527;-79
2022/05/18 01:05:49;;;;;;;1.00;1.00;;;16.50;72.30;16.00;98754.00;;;;5015227;28;20660;-78
2022/05/18 01:08:29;;;;;;;0.50;0.50;;;16.50;72.50;15.80;98759.00;;;;5015174;28;20304;-79
2022/05/18 01:10:56;;;;;;;0.70;0.70;;;16.40;72.40;15.70;98765.00;;;;5015231;28;20213;-80
2022/05/18 01:13:22;;;;;;;0.60;0.60;;;16.30;73.20;15.70;98762.00;;;;5015363;28;20251;-79
2022/05/18 01:15:51;;;;;;;4.83;0.80;;;16.20;73.90;15.70;98766.00;;;;5015362;28;20201;-79
2022/05/18 01:18:18;;;;;;;0.40;0.40;;;16.20;73.90;15.60;98772.00;;;;5015257;28;20223;-78
2022/05/18 01:20:48;;;;;;;0.50;0.50;;;16.20;73.90;15.60;98765.00;;;;5015060;28;20201;-79
2022/05/18 01:23:38;;;;;;;0.73;0.73;;;16.20;73.80;15.60;98769.00;;;;4997726;28;20201;-80
2022/05/18 01:26:17;;;;;;;0.40;0.40;;;16.10;73.90;15.70;98771.00;;;;5014329;28;20240;-80
2022/05/18 01:28:52;;;;;;;0.40;0.40;;;16.20;74.40;15.50;98775.00;;;;5014837;28;20235;-79
2022/05/18 01:31:19;;;;;;;0.60;0.60;;;16.10;73.80;15.50;98780.00;;;;5014929;28;20177;-78
2022/05/18 01:33:46;;;;;;;0.70;0.70;;;16.10;74.30;15.50;98783.00;;;;5014868;28;20201;-79
2022/05/18 01:36:13;;;;;;;0.83;0.83;;;16.10;74.30;15.40;98772.00;;;;5014862;28;20205;-78
2022/05/18 01:38:41;;;;;;;0.60;0.60;;;16.00;75.00;15.40;98782.00;;;;5014783;28;20217;-77
2022/05/18 01:41:17;;;;;;;0.80;0.80;;;15.90;75.50;15.40;98784.00;;;;4997875;28;20221;-78
2022/05/18 01:43:50;;;;;;;0.50;0.50;;;16.00;75.80;15.30;98791.00;;;;5014809;28;20203;-79
2022/05/18 01:46:19;;;;;;;0.70;0.70;;;15.90;76.10;15.30;98778.00;;;;5014788;28;20231;-78
2022/05/18 01:48:52;;;;;;;0.50;0.50;;;15.90;75.90;15.30;98781.00;;;;5014521;28;20236;-78
2022/05/18 01:51:29;;;;;;;0.60;0.60;;;15.90;76.50;15.40;98796.00;;;;5014524;28;20221;-79
2022/05/18 01:53:57;;;;;;;0.83;0.83;;;15.90;76.00;15.40;98781.00;;;;5014550;28;20198;-78
2022/05/18 01:56:24;;;;;;;0.47;0.47;;;15.90;75.90;15.30;98783.00;;;;5014718;28;20212;-79
2022/05/18 01:58:52;;;;;;;1.30;1.20;;;15.90;75.90;15.30;98784.00;;;;5014418;28;20227;-79
2022/05/18 02:01:20;;;;;;;1.07;1.07;;;15.90;75.50;15.30;98773.00;;;;5014701;28;20287;-79
2022/05/18 02:03:47;;;;;;;0.50;0.50;;;15.80;74.90;15.30;98768.00;;;;5014593;28;20197;-79
2022/05/18 02:06:13;;;;;;;1.03;0.70;;;15.80;75.10;15.20;98775.00;;;;5014317;28;20225;-78
2022/05/18 02:08:40;;;;;;;0.63;0.63;;;15.80;75.30;15.20;98767.00;;;;5014287;28;20321;-79
2022/05/18 02:11:12;;;;;;;0.60;0.60;;;15.70;76.00;15.10;98764.00;;;;5014258;28;20201;-78
2022/05/18 02:13:39;;;;;;;0.83;0.83;;;15.60;75.60;15.10;98772.00;;;;5014394;28;20189;-78
2022/05/18 02:16:07;;;;;;;1.13;0.90;;;15.60;76.20;15.00;98771.00;;;;5014239;28;20718;-76
2022/05/18 02:18:36;;;;;;;0.70;0.70;;;15.50;75.90;14.90;98775.00;;;;5014467;28;20217;-79
2022/05/18 02:21:04;;;;;;;0.60;0.60;;;15.40;76.60;14.90;98786.00;;;;5014231;28;20194;-77
2022/05/18 02:23:30;;;;;;;0.70;0.70;;;15.40;76.90;14.80;98778.00;;;;5014200;28;20277;-80
2022/05/18 02:25:58;;;;;;;0.50;0.50;;;15.40;78.00;14.90;98777.00;;;;5014133;28;20311;-78
2022/05/18 02:28:25;;;;;;;0.40;0.40;;;15.40;76.10;14.80;98749.00;;;;4996892;28;20373;-79
2022/05/18 02:30:52;;;;;;;0.80;0.80;;;15.40;76.80;14.90;98772.00;;;;5014120;28;20292;-79
2022/05/18 02:33:19;;;;;;;0.50;0.50;;;15.40;77.00;14.90;98767.00;;;;5013959;28;20201;-78
2022/05/18 02:35:48;;;;;;;0.67;0.67;;;15.40;77.20;14.80;98784.00;;;;5014052;28;20578;-80
2022/05/18 02:38:17;;;;;;;0.70;0.70;;;15.30;77.50;14.60;98799.00;;;;5012782;28;20240;-79
2022/05/18 02:40:43;;;;;;;0.90;0.90;;;15.30;78.10;14.80;98794.00;;;;5013960;28;20284;-79
2022/05/18 02:43:11;;;;;;;0.60;0.60;;;15.20;78.00;14.70;98798.00;;;;5013832;28;20308;-79
2022/05/18 02:45:37;;;;;;;1.00;0.93;;;15.30;78.20;14.70;98806.00;;;;5013781;28;20282;-79
2022/05/18 02:48:07;;;;;;;0.83;0.83;;;15.20;78.40;14.70;98805.00;;;;5013890;28;20288;-79
2022/05/18 02:50:35;;;;;;;0.90;0.90;;;15.20;78.50;14.80;98808.00;;;;5013690;28;20288;-79
2022/05/18 02:53:04;;;;;;;0.77;0.77;;;15.30;78.60;14.80;98817.00;;;;5013704;28;20225;-80
2022/05/18 02:58:15;;;;;;;0.70;0.70;;;15.30;78.50;14.60;98808.00;;;;5013843;28;20200;-80
2022/05/18 03:00:41;;;;;;;0.50;0.50;;;15.20;78.60;14.70;98807.00;;;;5013714;28;20216;-79
2022/05/18 03:03:08;;;;;;;0.90;0.90;;;15.10;79.30;14.80;98811.00;;;;4996395;28;20209;-80
2022/05/18 03:05:35;;;;;;;0.57;0.57;;;15.30;78.60;14.70;98811.00;;;;5013562;28;20239;-80
2022/05/18 03:08:01;;;;;;;0.60;0.60;;;15.20;77.70;14.80;98802.00;;;;5013585;28;20660;-80
2022/05/18 03:10:28;;;;;;;0.70;0.70;;;15.30;77.10;14.60;98808.00;;;;5013770;28;20217;-79
2022/05/18 03:12:56;;;;;;;0.80;0.80;;;15.10;78.40;14.60;98808.00;;;;5013488;28;20225;-79
2022/05/18 03:15:23;;;;;;;0.67;0.67;;;15.10;77.90;14.40;98802.00;;;;5013644;28;20328;-80
2022/05/18 03:17:49;;;;;;;0.70;0.70;;;15.00;77.70;14.40;98809.00;;;;5013473;28;20288;-79
2022/05/18 03:25:42;;;;;;;1.33;1.33;;;14.90;78.70;14.30;98811.00;;;;5013078;28;20233;-79
2022/05/18 03:28:11;;;;;;;0.60;0.60;;;14.80;78.60;14.30;98806.00;;;;5013306;28;20660;-79
2022/05/18 03:30:38;;;;;;;0.60;0.60;;;14.80;79.10;14.20;98815.00;;;;5013544;28;20201;-79
2022/05/18 03:33:05;;;;;;;0.60;0.60;;;14.80;79.50;14.20;98813.00;;;;4995986;28;20646;-79
2022/05/18 03:35:31;;;;;;;0.70;0.70;;;14.70;80.20;14.10;98811.00;;;;5013284;28;20253;-79
2022/05/18 03:37:58;;;;;;;0.97;0.97;;;14.70;81.20;14.30;98819.00;;;;5013214;28;20201;-79
2022/05/18 03:40:26;;;;;;;0.70;0.70;;;14.80;81.20;14.40;98822.00;;;;5013360;28;20213;-78
2022/05/18 03:42:52;;;;;;;1.40;1.33;;;14.90;80.70;14.20;98815.00;;;;5013153;28;20289;-79
2022/05/18 03:45:19;;;;;;;0.60;0.60;;;14.80;80.30;14.30;98819.00;;;;5013122;28;20287;-79
2022/05/18 03:47:45;;;;;;;0.77;0.77;;;14.80;80.90;14.20;98816.00;;;;5013042;28;20600;-79
2022/05/18 03:50:13;;;;;;;0.87;0.87;;;14.80;81.00;14.30;98826.00;;;;5015461;28;20647;-79
2022/05/18 03:52:39;;;;;;;0.70;0.70;;;14.80;80.60;14.30;98826.00;;;;5016277;28;20225;-79
2022/05/18 03:55:07;;;;;;;0.67;0.67;;;14.80;80.80;14.30;98821.00;;;;5016456;28;20629;-79
2022/05/18 03:57:34;;;;;;;0.50;0.50;;;14.80;80.20;14.30;98834.00;;;;5016421;28;20197;-79
2022/05/18 04:00:06;;;;;;;0.60;0.60;;;14.80;80.60;14.20;98836.00;;;;4999463;28;20504;-79
2022/05/18 04:02:35;;;;;;;0.60;0.60;;;14.70;80.20;14.20;98832.00;;;;5016269;28;20511;-78
2022/05/18 04:05:04;;;;;;;0.87;0.87;;;14.80;80.40;14.20;98839.00;;;;5016243;28;20229;-79
2022/05/18 04:07:31;;;;;;;0.60;0.60;;;14.70;80.50;14.20;98845.00;;;;5016211;28;20303;-79
2022/05/18 04:09:57;;;;;;;0.70;0.70;;;14.70;81.00;14.10;98843.00;;;;4999206;28;20208;-79
2022/05/18 04:12:25;;;;;;;2.00;0.97;;;14.70;80.90;14.10;98843.00;;;;5016129;28;20589;-78
2022/05/18 04:14:54;;;;;;;1.03;1.03;;;14.70;81.10;14.30;98847.00;;;;5016095;28;20198;-79
2022/05/18 04:17:21;;;;;;;0.40;0.40;;;14.80;80.20;14.30;98852.00;;;;5016157;28;20263;-78
2022/05/18 04:19:48;;;;;;;0.83;0.83;;;14.80;79.40;14.20;98852.00;;;;5015990;28;20641;-79
2022/05/18 04:22:14;;;;;;;0.60;0.60;;;14.80;80.20;14.20;98850.00;;;;5015950;28;20280;-80
2022/05/18 04:24:41;;;;;;;0.70;0.70;;;14.80;80.20;14.10;98845.00;;;;5016187;28;20308;-80
2022/05/18 04:27:07;;;;;;;0.77;0.77;;;14.80;80.40;14.30;98840.00;;;;5015903;28;20217;-79
2022/05/18 04:29:35;;;;;;;1.00;1.00;;;14.80;81.30;14.30;98818.00;;;;5016037;28;20194;-79
2022/05/18 04:32:01;;;;;;;0.70;0.70;;;14.80;80.20;14.50;98849.00;;;;4998539;28;20229;-78
2022/05/18 04:34:30;;;;;;;0.67;0.67;;;14.90;80.30;14.40;98849.00;;;;4998703;28;20564;-77
2022/05/18 04:36:56;;;;;;;0.70;0.70;;;15.00;80.10;14.30;98851.00;;;;5015861;28;20229;-78
2022/05/18 04:39:23;;;;;;;0.60;0.60;;;14.90;80.60;14.30;98860.00;;;;5015682;28;20213;-79
2022/05/18 04:41:50;;;;;;;0.80;0.80;;;14.90;81.50;14.40;98852.00;;;;4998514;28;20204;-79
2022/05/18 04:44:17;;;;;;;2.17;1.70;;;14.90;82.10;14.50;98851.00;;;;5015629;28;20236;-79
2022/05/18 04:46:44;;;;;;;0.40;0.40;;;15.00;81.80;14.50;98861.00;;;;4998449;28;20248;-79
2022/05/18 04:49:14;;;;;;;0.77;0.77;;;15.00;82.20;14.40;98871.00;;;;5015545;28;20229;-78
2022/05/18 04:51:41;;;;;;;0.70;0.70;;;15.00;82.70;14.40;98869.00;;;;5015535;28;20233;-78
2022/05/18 04:54:08;;;;;;;0.50;0.50;;;15.00;83.50;14.60;98870.00;;;;4998512;28;20523;-78
2022/05/18 04:56:34;;;;;;;0.73;0.73;;;15.10;83.70;14.60;98867.00;;;;5015492;28;20252;-79
2022/05/18 04:59:00;;;;;;;1.40;1.30;;;15.10;84.30;14.70;98870.00;;;;5015441;28;20232;-78
2022/05/18 05:01:30;;;;;;;0.70;0.70;;;15.10;85.20;14.70;98867.00;;;;5014500;28;20665;-78
2022/05/18 05:03:57;;;;;;;1.17;1.17;;;15.20;85.50;14.70;98873.00;;;;5015406;28;20232;-79
2022/05/18 05:06:23;;;;;;;0.60;0.60;;;15.30;86.40;14.80;98875.00;;;;5015299;28;20672;-79
2022/05/18 05:08:50;;;;;;;0.83;0.83;;;15.40;86.90;15.00;98874.00;;;;4997963;28;20653;-78
2022/05/18 05:11:16;;;;;;;0.87;0.87;;;15.50;87.50;15.10;98876.00;;;;5015256;28;20322;-79
2022/05/18 05:13:43;;;;;;;0.63;0.63;;;15.60;88.10;15.20;98886.00;;;;5015360;28;20237;-79
2022/05/18 05:16:12;;;;;;;1.00;1.00;;;15.60;88.50;15.20;98876.00;;;;5015216;28;20201;-79
2022/05/18 05:18:39;;;;;;;0.80;0.80;;;15.80;87.60;15.20;98883.00;;;;5015945;28;20283;-78
2022/05/18 05:21:06;;;;;;;5.40;1.60;;;15.80;87.80;15.40;98880.00;;;;5015491;28;20310;-79
2022/05/18 05:23:33;;;;;;;0.70;0.70;;;15.90;87.80;15.50;98880.00;;;;5015407;28;20209;-78
2022/05/18 05:26:00;;;;;;;1.00;1.00;;;15.90;87.70;15.50;98887.00;;;;5015086;28;20652;-79
2022/05/18 05:28:28;;;;;;;0.80;0.80;;;16.00;87.50;15.60;98892.00;;;;4997706;28;20560;-78
2022/05/18 05:30:54;;;;;;;0.60;0.60;;;16.10;88.50;15.70;98892.00;;;;5014746;28;20197;-79
2022/05/18 05:33:21;;;;;;;0.90;0.90;;;16.20;86.90;15.80;98899.00;;;;5014944;28;20322;-78
2022/05/18 05:35:47;;;;;;;1.00;1.00;;;16.30;86.80;15.90;98896.00;;;;5014887;28;20258;-79
2022/05/18 05:38:15;;;;;;;0.70;0.70;;;16.40;86.10;16.00;98896.00;;;;5014710;28;20420;-79
2022/05/18 05:40:41;;;;;;;0.60;0.60;;;16.50;85.40;16.10;98896.00;;;;5014702;28;20198;-79
2022/05/18 05:43:10;;;;;;;1.30;1.20;;;16.50;84.90;16.20;98886.00;;;;5014619;28;20201;-79
2022/05/18 05:45:38;;;;;;;1.47;1.37;;;16.70;84.00;16.30;98901.00;;;;5014994;28;20216;-78
2022/05/18 05:48:07;;;;;;;1.40;1.40;;;16.70;81.90;16.40;98902.00;;;;5015620;28;20628;-79
2022/05/18 05:50:34;;;;;;;4.43;1.37;;;16.80;81.20;16.50;98909.00;;;;5015490;28;20198;-79
2022/05/18 05:53:01;;;;;;;0.80;0.80;;;17.00;81.20;16.60;98913.00;;;;5015457;28;20208;-80
2022/05/18 05:55:28;;;;;;;0.93;0.93;;;17.00;80.90;16.60;98913.00;;;;5015373;28;20224;-77
2022/05/18 05:57:56;;;;;;;0.70;0.70;;;17.10;80.10;16.70;98902.00;;;;4997885;28;20252;-78
2022/05/18 06:00:23;;;;;;;0.50;0.50;;;17.30;79.20;16.80;98911.00;;;;5026083;28;20209;-79
2022/05/18 06:02:50;;;;;;;0.97;0.97;;;17.30;79.80;16.90;98911.00;;;;5026954;28;20214;-78
2022/05/18 06:05:17;;;;;;;1.27;1.17;;;17.40;79.80;17.00;98910.00;;;;5023325;28;20228;-78
2022/05/18 06:07:44;;;;;;;0.60;0.60;;;17.50;77.50;17.10;98908.00;;;;5020301;28;20221;-78
2022/05/18 06:10:11;;;;;;;0.73;0.73;;;17.60;78.20;17.20;98908.00;;;;5020467;28;20264;-79
2022/05/18 06:12:39;;;;;;;1.03;1.03;;;17.70;78.20;17.30;98899.00;;;;5020432;28;20729;-79
2022/05/18 06:15:10;;;;;;;0.50;0.50;;;;;17.40;98910.00;;;;5017323;28;20194;-78
2022/05/18 06:17:37;;;;;;;0.67;0.67;;;17.80;78.50;17.40;98909.00;;;;5014229;28;20236;-80
2022/05/18 06:20:05;;;;;;;1.43;1.33;;;17.90;79.00;17.50;98911.00;;;;5014277;28;20292;-79
2022/05/18 06:22:31;;;;;;;1.07;1.07;;;17.90;79.60;17.50;98912.00;;;;5014094;28;20211;-80
2022/05/18 06:24:58;;;;;;;0.60;0.60;;;18.00;80.00;17.60;98918.00;;;;5014005;28;20283;-80
2022/05/18 06:27:27;;;;;;;0.80;0.80;;;18.00;80.30;17.70;98920.00;;;;5014039;28;20216;-79
2022/05/18 06:29:55;;;;;;;0.70;0.70;;;18.10;80.30;17.70;98917.00;;;;5014033;28;20252;-77
2022/05/18 06:32:21;;;;;;;1.07;1.07;;;18.20;79.80;17.90;98916.00;;;;5014074;28;20197;-79
2022/05/18 06:34:50;;;;;;;0.93;0.93;;;18.40;76.40;17.90;98915.00;;;;5013926;28;20289;-78
2022/05/18 06:37:17;;;;;;;0.67;0.67;;;18.50;75.90;18.00;98918.00;;;;5013728;28;20235;-78
2022/05/18 06:39:43;;;;;;;1.53;1.43;;;18.60;75.20;18.20;98912.00;;;;5013862;28;20197;-78
2022/05/18 06:42:12;;;;;;;0.97;0.93;;;18.60;75.90;18.30;98910.00;;;;5013751;28;20260;-77
2022/05/18 06:44:39;;;;;;;1.17;1.13;;;18.70;75.40;18.40;98924.00;;;;4996629;28;20201;-77
2022/05/18 06:47:06;;;;;;;0.60;0.60;;;;;18.50;98927.00;;;;5013737;28;20202;-78
2022/05/18 06:49:33;;;;;;;1.20;1.13;;;;;18.60;98918.00;;;;5013924;28;20232;-78
2022/05/18 06:52:03;;;;;;;0.40;0.40;;;19.00;73.70;18.70;98914.00;;;;5013708;28;20204;-76
2022/05/18 06:54:30;;;;;;;2.67;1.07;;;;;18.80;98914.00;;;;4996327;28;20236;-76
2022/05/18 06:56:56;;;;;;;0.63;0.63;;;19.20;74.60;18.90;98909.00;;;;4996439;28;20208;-76
2022/05/18 06:59:23;;;;;;;0.60;0.60;;;19.30;75.30;19.00;98909.00;;;;5013702;28;20209;-79
2022/05/18 07:01:52;;;;;;;0.70;0.70;;;;;19.10;98909.00;;;;5013604;28;20235;-76
2022/05/18 07:04:20;;;;;;;1.20;0.90;;;;;19.20;98913.00;;;;5013689;28;20205;-77
2022/05/18 07:06:46;;;;;;;0.80;0.80;;;19.60;71.30;19.30;98909.00;;;;5013562;28;20205;-76
2022/05/18 07:09:16;;;;;;;0.60;0.60;;;19.80;71.70;19.30;98914.00;;;;5013671;28;20237;-76
2022/05/18 07:11:45;;;;;;;0.77;0.77;;;;;19.50;98909.00;;;;5013462;28;20259;-77
2022/05/18 07:14:13;;;;;;;0.60;0.60;;;19.90;68.30;19.60;98893.00;;;;5013549;28;20236;-75
2022/05/18 07:16:40;;;;;;;0.40;0.40;;;20.00;68.70;19.60;98911.00;;;;5013459;28;20296;-76
2022/05/18 07:19:07;;;;;;;0.70;0.70;;;20.10;65.90;19.70;98915.00;;;;5013421;28;20258;-77
2022/05/18 07:21:34;;;;;;;0.67;0.67;;;;;19.80;98905.00;;;;5013434;28;20225;-76
2022/05/18 07:24:01;;;;;;;1.27;1.27;;;20.30;65.30;20.00;98912.00;;;;5014226;28;20205;-78
2022/05/18 07:26:29;;;;;;;0.70;0.70;;;;;20.00;98910.00;;;;5017191;28;20209;-79
2022/05/18 07:28:59;;;;;;;1.07;1.07;;;20.50;65.20;20.20;98910.00;;;;5016949;28;20213;-77
2022/05/18 07:31:26;;;;;;;0.93;0.93;;;20.60;65.80;20.30;98916.00;;;;5017061;28;20204;-77
2022/05/18 07:33:53;;;;;;;1.17;1.17;;;;;20.50;98911.00;;;;5016633;28;20283;-78
2022/05/18 07:36:20;;;;;;;1.07;1.07;;;20.80;63.30;20.40;98917.00;;;;5016665;28;20201;-79
2022/05/18 07:38:50;;;;;;;0.80;0.80;;;20.90;64.00;20.50;98919.00;;;;5016543;28;20248;-77
2022/05/18 07:41:17;;;;;;;2.10;1.70;;;20.90;63.60;20.50;98915.00;;;;5016630;28;20197;-77
2022/05/18 07:43:44;;;;;;;0.83;0.83;;;21.00;62.90;20.60;98917.00;;;;5016508;28;20296;-77
2022/05/18 07:46:12;;;;;;;0.80;0.80;;;21.00;62.80;20.70;98916.00;;;;5016514;28;20229;-76
2022/05/18 07:48:40;;;;;;;0.57;0.57;;;21.10;61.80;20.80;98904.00;;;;5016490;28;20217;-76
2022/05/18 07:51:07;;;;;;;0.60;0.60;;;21.20;61.40;20.90;98910.00;;;;4999264;28;20236;-77
2022/05/18 07:53:33;;;;;;;1.50;1.40;;;21.30;59.70;20.90;98915.00;;;;5016401;28;20193;-75
2022/05/18 07:56:05;;;;;;;0.43;0.43;;;21.30;59.90;20.90;98916.00;;;;4999121;28;20205;-76
2022/05/18 07:58:32;;;;;;;0.90;0.90;;;;;21.10;98911.00;;;;4999014;28;20240;-79
2022/05/18 08:00:58;;;;;;;0.85;0.85;;;21.50;58.00;21.10;98913.00;;;;5016418;28;20224;-76
2022/05/18 08:03:25;;;;;;;0.52;0.52;;;21.50;58.70;21.30;98903.00;;;;5016226;28;20243;-78
2022/05/18 08:05:51;;;;;;;1.13;1.13;;;21.70;55.30;21.40;98912.00;;;;5016050;28;20225;-78
2022/05/18 08:08:22;;;;;;;0.82;0.82;;;21.80;54.50;21.60;98908.00;;;;5016303;28;20333;-79
2022/05/18 08:16:22;;;;;;;0.52;0.52;;;22.20;50.40;22.30;98921.00;;;;5016048;28;20325;-76
2022/05/18 08:18:49;;;;;;;0.63;0.63;;;22.50;47.10;22.20;98916.00;;;;5015834;28;20225;-77
2022/05/18 08:21:20;;;;;;;1.13;1.13;;;22.50;46.80;22.20;98916.00;;;;5015957;28;20202;-77
2022/05/18 08:23:47;;;;;;;0.85;0.85;;;22.60;46.20;22.40;98909.00;;;;5016196;28;20604;-78
2022/05/18 08:26:14;;;;;;;0.40;0.40;;;22.70;45.10;22.40;98909.00;;;;5015985;28;20233;-78
2022/05/18 08:28:42;;;;;;;0.60;0.60;;;22.80;46.10;22.50;98915.00;;;;5015946;28;20649;-78
2022/05/18 08:31:12;;;;;;;0.88;0.88;;;22.90;47.60;22.70;98917.00;;;;5015745;28;20229;-79
2022/05/18 08:33:39;;;;;;;0.40;0.40;;;23.00;45.10;22.70;98927.00;;;;5015861;28;20217;-78
2022/05/18 08:36:08;;;;;;;0.80;0.80;;;23.10;45.10;22.80;98917.00;;;;5014368;28;20201;-78
2022/05/18 08:38:37;;;;;;;0.80;0.80;;;23.20;44.70;22.90;98927.00;;;;5015764;28;20229;-78
2022/05/18 08:41:13;;;;;;;0.73;0.73;;;23.20;44.40;22.90;98916.00;;;;4998546;28;20208;-78
2022/05/18 08:43:44;;;;;;;0.70;0.70;;;23.30;43.90;22.90;98924.00;;;;5015778;28;20238;-80
2022/05/18 08:46:22;;;;;;;0.45;0.45;;;23.30;45.20;23.00;98925.00;;;;5015843;28;20526;-79
2022/05/18 08:48:59;;;;;;;0.73;0.73;;;23.40;45.20;23.20;98929.00;;;;5015719;28;20740;-78
2022/05/18 08:51:43;;;;;;;0.50;0.50;;;23.50;43.20;23.20;98924.00;;;;5015459;28;20244;-77
2022/05/18 08:54:49;;;;;;;0.80;0.80;;;23.50;42.50;23.20;98921.00;;;;5015541;28;20200;-77
2022/05/18 08:57:22;;;;;;;0.50;0.50;;;23.60;43.70;23.50;98928.00;;;;5015424;28;20255;-77
2022/05/18 08:59:57;;;;;;;0.93;0.93;;;23.80;42.60;23.50;98924.00;;;;5015387;28;20223;-79
2022/05/18 09:02:30;;;;;;;0.95;0.95;;;23.80;42.50;23.60;98925.00;;;;5015305;28;20225;-76
2022/05/18 09:05:03;;;;;;;0.70;0.70;;;23.90;40.90;23.60;98924.00;;;;5015332;28;20350;-76
2022/05/18 09:07:38;;;;;;;1.10;1.10;;;24.00;42.00;23.70;98922.00;;;;5015387;28;20212;-79
2022/05/18 09:10:21;;;;;;;0.50;0.50;;;24.10;43.70;23.80;98920.00;;;;5015268;28;20687;-74
2022/05/18 09:12:50;;;;;;;0.60;0.60;;;24.20;42.50;23.90;98922.00;;;;5015260;28;20204;-76
2022/05/18 09:15:23;;;;;;;0.70;0.70;;;24.30;41.70;23.80;98921.00;;;;5015060;28;20216;-76
2022/05/18 09:17:59;;;;;;;0.52;0.52;;;24.30;41.60;23.90;98924.00;;;;5015061;28;20216;-73
2022/05/18 09:20:39;;;;;;;0.75;0.70;;;24.30;41.90;24.20;98926.00;;;;5015091;28;20201;-72
2022/05/18 09:23:31;;;;;;;0.85;0.85;;;24.50;39.20;24.20;98926.00;;;;5014989;28;20660;-74
2022/05/18 09:26:21;;;;;;;0.63;0.63;;;24.60;39.80;24.40;98922.00;;;;5014921;28;20283;-75
2022/05/18 09:28:56;;;;;;;0.40;0.40;;;24.80;38.60;24.60;98934.00;;;;5014792;28;20239;-74
2022/05/18 09:31:53;;;;;;;0.60;0.60;;;24.80;37.60;24.60;98931.00;;;;5014979;28;20197;-72
2022/05/18 09:34:49;;;;;;;0.80;0.75;;;24.90;37.00;24.70;98921.00;;;;5014951;28;20202;-74
2022/05/18 09:37:30;;;;;;;3.10;0.70;;;25.10;37.80;24.80;98924.00;;;;5014784;28;20225;-72
2022/05/18 09:40:06;;;;;;;0.60;0.60;;;25.10;37.50;24.80;98913.00;;;;5014742;28;20653;-74
2022/05/18 09:42:39;;;;;;;1.17;1.02;;;25.20;36.80;25.00;98919.00;;;;5013624;28;20325;-75
2022/05/18 09:45:15;;;;;;;0.70;0.70;;;25.30;36.30;25.10;98916.00;;;;5014663;28;20209;-74
2022/05/18 09:47:57;;;;;;;0.60;0.60;;;25.40;35.00;25.30;98919.00;;;;5014090;28;20209;-74
2022/05/18 09:50:23;;;;;;;2.22;0.60;;;25.60;35.00;25.30;98919.00;;;;5014631;28;20197;-73
2022/05/18 09:52:51;;;;;;;0.50;0.50;;;25.70;34.50;25.40;98915.00;;;;5014522;28;20213;-73
2022/05/18 09:55:23;;;;;;;0.63;0.63;;;25.80;34.50;25.40;98912.00;;;;5014470;28;20298;-75
2022/05/18 09:57:56;;;;;;;0.52;0.52;;;;;25.60;98916.00;;;;5014557;28;20276;-74
2022/05/18 10:00:27;;;;;;;0.77;0.77;;;25.90;32.90;25.80;98914.00;;;;5014424;28;20565;-73
2022/05/18 10:08:49;;;;;;;0.60;0.60;;;;;26.00;98903.00;;;;4996735;28;20228;-74
2022/05/18 10:11:22;;;;;;;0.95;0.95;;;26.30;32.20;26.20;98903.00;;;;5014344;28;20200;-73
2022/05/18 10:14:12;;;;;;;0.40;0.40;;;26.50;33.90;26.20;98905.00;;;;5014238;28;20292;-74
2022/05/18 10:16:47;;;;;;;0.77;0.77;;;26.60;34.30;26.30;98894.00;;;;4996806;28;20307;-74
2022/05/18 10:19:28;;;;;;;0.70;0.70;;;26.60;32.10;26.40;98897.00;;;;5014164;28;20211;-72
2022/05/18 10:22:01;;;;;;;0.70;0.70;;;26.80;32.90;26.50;98894.00;;;;5014117;28;20256;-73
2022/05/18 10:24:37;;;;;;;0.60;0.60;;;26.90;33.90;26.70;98895.00;;;;5014176;28;20522;-73
2022/05/18 10:27:28;;;;;;;0.70;0.70;;;27.00;34.90;26.70;98893.00;;;;5014095;28;20231;-74
2022/05/18 10:30:10;;;;;;;0.70;0.70;;;27.10;34.60;26.70;98896.00;;;;5013988;28;20233;-71
2022/05/18 10:32:55;;;;;;;2.03;1.60;;;27.10;34.70;26.80;98896.00;;;;5014102;28;20221;-75
2022/05/18 10:35:48;;;;;;;0.82;0.82;;;27.10;34.40;26.80;98894.00;;;;5013993;28;20262;-73
2022/05/18 10:38:21;;;;;;;0.55;0.55;;;;;26.90;98890.00;;;;5013985;28;20217;-74
2022/05/18 10:40:49;;;;;;;0.50;0.50;;;27.20;32.80;26.90;98898.00;;;;5013884;28;20228;-74
2022/05/18 10:43:31;;;;;;;0.63;0.63;;;27.20;33.50;27.10;98889.00;;;;5013831;28;20193;-73
2022/05/18 10:46:02;;;;;;;0.57;0.57;;;27.40;34.00;27.20;98888.00;;;;5013891;28;20247;-74
2022/05/18 10:48:32;;;;;;;0.88;0.88;;;27.50;33.50;27.20;98888.00;;;;5013719;28;20217;-73
2022/05/18 10:51:06;;;;;;;0.90;0.90;;;27.50;33.10;27.10;98891.00;;;;5013776;28;20275;-73
2022/05/18 10:53:40;;;;;;;0.60;0.60;;;27.50;31.80;27.60;98881.00;;;;5013682;28;20251;-73
2022/05/18 10:56:14;;;;;;;0.60;0.60;;;27.80;31.90;27.70;98885.00;;;;5013744;28;20179;-73
2022/05/18 10:58:45;;;;;;;1.10;1.02;;;27.90;29.90;27.70;98881.00;;;;5013916;28;20281;-73
2022/05/18 11:01:22;;;;;;;0.90;0.90;;;28.00;31.60;27.80;98879.00;;;;5017153;28;20201;-72
2022/05/18 11:04:01;;;;;;;0.50;0.50;;;28.10;29.90;27.90;98882.00;;;;5017285;28;20212;-74
2022/05/18 11:06:33;;;;;;;0.75;0.75;;;28.20;29.50;28.00;98874.00;;;;5017066;28;20228;-74
2022/05/18 11:09:07;;;;;;;0.60;0.60;;;28.30;30.40;28.30;98872.00;;;;5016915;28;20652;-73
2022/05/18 11:11:47;;;;;;;0.52;0.52;;;28.60;30.20;28.30;98872.00;;;;5016838;28;20263;-75
2022/05/18 11:14:26;;;;;;;0.57;0.57;;;28.70;30.70;28.50;98862.00;;;;5017193;28;20186;-72
2022/05/18 11:17:04;;;;;;;1.00;0.98;;;28.70;30.80;28.60;98859.00;;;;5016987;28;20197;-77
2022/05/18 11:19:44;;;;;;;0.65;0.65;;;28.90;29.70;28.90;98862.00;;;;5016952;28;20217;-75
2022/05/18 11:22:30;;;;;;;0.60;0.60;;;29.10;30.40;28.90;98857.00;;;;5016893;28;20212;-77
2022/05/18 11:25:17;;;;;;;0.90;0.90;;;29.20;29.50;29.10;98865.00;;;;5016771;28;20236;-77
2022/05/18 11:27:53;;;;;;;0.60;0.60;;;29.40;29.50;29.40;98859.00;;;;5016879;28;20193;-76
2022/05/18 11:30:30;;;;;;;0.80;0.80;;;29.60;28.40;29.50;98859.00;;;;5016872;28;20336;-74